createdAt,value
2018-08-13T00:01:42.637Z,2.43
2018-08-13T00:04:09.733Z,2.10
2018-08-13T00:06:36.888Z,1.87
2018-08-13T00:09:05.665Z,2.00
2018-08-13T00:11:32.755Z,2.40
2018-08-13T00:13:59.855Z,2.00
2018-08-13T00:16:26.974Z,2.20
2018-08-13T00:18:54.077Z,2.10
2018-08-13T00:21:21.180Z,2.23
2018-08-13T00:23:48.289Z,2.00
2018-08-13T00:26:15.378Z,1.67
2018-08-13T00:28:42.480Z,2.37
2018-08-13T00:31:10.140Z,2.10
2018-08-13T00:33:37.251Z,2.10
2018-08-13T00:36:04.349Z,2.40
2018-08-13T00:38:31.456Z,1.90
2018-08-13T00:40:58.660Z,2.33
2018-08-13T00:43:25.757Z,2.63
2018-08-13T00:45:52.854Z,2.30
2018-08-13T00:48:19.948Z,2.10
2018-08-13T00:50:47.056Z,1.83
2018-08-13T00:53:14.196Z,2.50
2018-08-13T00:55:41.345Z,2.23
2018-08-13T00:58:08.465Z,2.20
2018-08-13T01:00:35.568Z,2.07
2018-08-13T01:03:02.673Z,2.00
2018-08-13T01:05:29.790Z,2.20
2018-08-13T01:07:56.948Z,2.10
2018-08-13T01:10:24.092Z,1.97
2018-08-13T01:12:51.192Z,2.30
2018-08-13T01:15:19.069Z,4.83
2018-08-13T01:17:47.260Z,2.00
2018-08-13T01:20:15.739Z,2.20
2018-08-13T01:22:42.955Z,1.97
2018-08-13T01:25:11.661Z,2.77
2018-08-13T01:27:39.225Z,2.60
2018-08-13T01:30:06.672Z,3.70
2018-08-13T01:32:36.753Z,3.30
2018-08-13T01:35:04.140Z,2.27
2018-08-13T01:37:31.229Z,1.87
2018-08-13T01:39:58.348Z,2.20
2018-08-13T01:42:25.644Z,2.50
2018-08-13T01:44:52.842Z,1.80
2018-08-13T01:47:20.176Z,2.10
2018-08-13T01:49:47.364Z,2.20
2018-08-13T01:52:14.623Z,3.53
2018-08-13T01:54:41.725Z,2.53
2018-08-13T01:57:08.832Z,3.13
2018-08-13T01:59:35.980Z,2.50
2018-08-13T02:02:03.165Z,4.50
2018-08-13T02:04:30.266Z,2.17
2018-08-13T02:06:57.357Z,5.70
2018-08-13T02:09:32.289Z,2.30
2018-08-13T02:11:59.705Z,1.83
2018-08-13T02:14:26.869Z,1.97
2018-08-13T02:16:54.053Z,2.23
2018-08-13T02:19:21.162Z,1.90
2018-08-13T02:21:48.272Z,2.20
2018-08-13T02:24:15.372Z,3.20
2018-08-13T02:26:42.477Z,2.10
2018-08-13T02:29:09.583Z,2.33
2018-08-13T02:31:36.717Z,2.30
2018-08-13T02:34:03.813Z,1.67
2018-08-13T02:36:30.912Z,2.40
2018-08-13T02:38:58.035Z,2.00
2018-08-13T02:41:25.117Z,2.20
2018-08-13T02:43:52.204Z,2.10
2018-08-13T02:46:19.317Z,2.30
2018-08-13T02:48:46.427Z,2.60
2018-08-13T02:51:13.525Z,2.30
2018-08-13T02:53:40.624Z,3.23
2018-08-13T02:56:07.785Z,2.40
2018-08-13T02:58:34.880Z,2.23
2018-08-13T03:01:01.989Z,2.40
2018-08-13T03:03:29.100Z,2.20
2018-08-13T03:05:56.217Z,2.20
2018-08-13T03:08:23.314Z,2.40
2018-08-13T03:10:50.404Z,2.50
2018-08-13T03:13:17.502Z,2.30
2018-08-13T03:15:44.665Z,2.10
2018-08-13T03:18:11.773Z,2.10
2018-08-13T03:20:38.889Z,2.53
2018-08-13T03:23:06.465Z,2.30
2018-08-13T03:25:33.588Z,2.87
2018-08-13T03:28:00.677Z,2.17
2018-08-13T03:30:27.768Z,2.37
2018-08-13T03:32:54.868Z,2.67
2018-08-13T03:35:21.957Z,1.97
2018-08-13T03:37:49.081Z,2.50
2018-08-13T03:40:16.247Z,2.23
2018-08-13T03:42:43.321Z,1.93
2018-08-13T03:45:10.924Z,2.20
2018-08-13T03:47:38.092Z,2.40
2018-08-13T03:50:05.767Z,2.13
2018-08-13T03:52:32.853Z,2.60
2018-08-13T03:54:59.996Z,4.07
2018-08-13T03:57:27.332Z,3.13
2018-08-13T03:59:54.440Z,1.80
2018-08-13T04:02:21.554Z,2.20
2018-08-13T04:04:48.646Z,2.43
2018-08-13T04:07:15.768Z,2.47
2018-08-13T04:09:44.612Z,2.33
2018-08-13T04:12:11.796Z,2.40
2018-08-13T04:14:38.908Z,2.63
2018-08-13T04:17:06.060Z,2.30
2018-08-13T04:19:33.884Z,2.30
2018-08-13T04:22:01.769Z,2.43
2018-08-13T04:24:28.868Z,2.40
2018-08-13T04:26:56.000Z,2.63
2018-08-13T04:29:23.104Z,2.40
2018-08-13T04:31:50.249Z,3.73
2018-08-13T04:34:17.448Z,3.50
2018-08-13T04:36:44.560Z,2.93
2018-08-13T04:39:13.224Z,4.90
2018-08-13T04:41:40.696Z,2.70
2018-08-13T04:44:07.793Z,3.00
2018-08-13T04:46:35.012Z,2.67
2018-08-13T04:49:02.116Z,3.10
2018-08-13T04:51:29.219Z,3.63
2018-08-13T04:53:56.317Z,3.50
2018-08-13T04:56:23.529Z,3.97
2018-08-13T04:58:50.926Z,3.20
2018-08-13T05:01:18.369Z,4.53
2018-08-13T05:03:45.635Z,4.77
2018-08-13T05:06:12.857Z,3.70
2018-08-13T05:08:40.102Z,7.43
2018-08-13T05:11:07.274Z,6.90
2018-08-13T05:13:34.534Z,7.37
2018-08-13T05:16:01.626Z,3.83
2018-08-13T05:18:28.846Z,3.53
2018-08-13T05:20:56.020Z,3.27
2018-08-13T05:23:23.221Z,4.10
2018-08-13T05:25:50.328Z,4.60
2018-08-13T05:28:17.429Z,3.43
2018-08-13T05:30:44.525Z,3.27
2018-08-13T05:33:11.767Z,3.93
2018-08-13T05:35:38.873Z,3.63
2018-08-13T05:38:06.408Z,6.17
2018-08-13T05:40:33.502Z,3.23
2018-08-13T05:43:00.657Z,3.33
2018-08-13T05:45:27.787Z,6.27
2018-08-13T05:47:54.908Z,3.83
2018-08-13T05:50:22.044Z,3.83
2018-08-13T05:52:49.199Z,7.77
2018-08-13T05:55:16.280Z,3.77
2018-08-13T05:57:43.391Z,14.63
2018-08-13T06:00:12.070Z,7.73
2018-08-13T06:02:40.441Z,6.90
2018-08-13T06:05:07.572Z,6.57
2018-08-13T06:07:34.672Z,6.87
2018-08-13T06:10:01.985Z,5.30
2018-08-13T06:12:29.120Z,6.57
2018-08-13T06:14:56.356Z,4.30
2018-08-13T06:17:25.151Z,3.60
2018-08-13T06:19:52.233Z,3.37
2018-08-13T06:22:19.470Z,4.20
2018-08-13T06:24:47.601Z,3.90
2018-08-13T06:27:14.713Z,4.33
2018-08-13T06:29:41.808Z,4.93
2018-08-13T06:32:08.917Z,3.80
2018-08-13T06:34:36.035Z,4.00
2018-08-13T06:37:03.161Z,8.20
2018-08-13T06:39:30.324Z,3.97
2018-08-13T06:41:57.516Z,9.53
2018-08-13T06:44:24.612Z,3.70
2018-08-13T06:46:51.767Z,7.33
2018-08-13T06:49:18.853Z,4.93
2018-08-13T06:51:45.948Z,4.43
2018-08-13T06:54:13.048Z,4.17
2018-08-13T06:56:40.144Z,4.00
2018-08-13T06:59:07.260Z,5.73
2018-08-13T07:01:34.397Z,4.60
2018-08-13T07:04:01.524Z,4.27
2018-08-13T07:06:28.661Z,3.93
2018-08-13T07:08:56.027Z,4.77
2018-08-13T07:11:29.029Z,6.93
2018-08-13T07:13:56.128Z,4.50
2018-08-13T07:16:23.675Z,5.20
2018-08-13T07:18:50.752Z,6.50
2018-08-13T07:21:17.867Z,6.43
2018-08-13T07:23:44.970Z,5.13
2018-08-13T07:26:12.060Z,5.53
2018-08-13T07:28:39.169Z,6.23
2018-08-13T07:31:06.316Z,5.50
2018-08-13T07:33:33.597Z,5.10
2018-08-13T07:36:00.696Z,6.63
2018-08-13T07:38:27.796Z,4.63
2018-08-13T07:40:54.922Z,5.13
2018-08-13T07:43:22.021Z,5.73
2018-08-13T07:45:49.369Z,6.50
2018-08-13T07:48:16.472Z,10.77
2018-08-13T07:50:43.615Z,4.60
2018-08-13T07:53:10.668Z,6.40
2018-08-13T07:55:37.789Z,4.83
2018-08-13T07:58:04.960Z,4.30
2018-08-13T08:00:32.060Z,5.20
2018-08-13T08:02:59.164Z,5.27
2018-08-13T08:05:26.437Z,4.70
2018-08-13T08:07:53.558Z,5.03
2018-08-13T08:10:20.680Z,8.50
2018-08-13T08:12:47.813Z,7.23
2018-08-13T08:15:15.799Z,4.57
2018-08-13T08:17:43.188Z,7.20
2018-08-13T08:20:10.325Z,5.23
2018-08-13T08:22:37.991Z,5.60
2018-08-13T08:25:06.438Z,4.40
2018-08-13T08:27:33.530Z,4.20
2018-08-13T08:30:00.763Z,4.43
2018-08-13T08:32:27.852Z,4.60
2018-08-13T08:34:54.944Z,4.70
2018-08-13T08:37:22.041Z,4.73
2018-08-13T08:39:49.132Z,3.90
2018-08-13T08:42:16.231Z,5.07
2018-08-13T08:44:43.532Z,3.87
2018-08-13T08:47:10.696Z,4.90
2018-08-13T08:49:37.789Z,3.90
2018-08-13T08:52:05.189Z,5.63
2018-08-13T08:54:32.284Z,3.90
2018-08-13T08:56:59.382Z,5.30
2018-08-13T08:59:26.477Z,3.60
2018-08-13T09:01:53.572Z,5.07
2018-08-13T09:04:20.664Z,5.40
2018-08-13T09:06:47.783Z,8.70
2018-08-13T09:09:14.884Z,5.53
2018-08-13T09:11:42.620Z,3.67
2018-08-13T09:14:09.897Z,4.37
2018-08-13T09:16:38.009Z,5.80
2018-08-13T09:19:11.097Z,5.13
2018-08-13T09:21:38.357Z,4.20
2018-08-13T09:24:11.740Z,3.73
2018-08-13T09:26:44.425Z,5.93
2018-08-13T09:29:17.344Z,6.17
2018-08-13T09:32:21.915Z,4.10
2018-08-13T09:34:54.697Z,4.30
2018-08-13T09:37:21.785Z,5.23
2018-08-13T09:39:50.248Z,8.53
2018-08-13T09:42:17.321Z,8.47
2018-08-13T09:44:44.660Z,7.70
2018-08-13T09:47:11.748Z,4.83
2018-08-13T09:49:38.848Z,5.13
2018-08-13T09:52:06.340Z,11.23
2018-08-13T09:54:33.489Z,4.90
2018-08-13T09:57:00.584Z,4.80
2018-08-13T09:59:27.988Z,5.30
2018-08-13T10:01:55.374Z,5.87
2018-08-13T10:04:23.590Z,5.30
2018-08-13T10:06:50.668Z,9.03
2018-08-13T10:09:17.797Z,9.03
2018-08-13T10:11:44.874Z,8.20
2018-08-13T10:14:11.997Z,7.20
2018-08-13T10:16:39.148Z,6.00
2018-08-13T10:19:06.236Z,5.40
2018-08-13T10:21:33.328Z,6.10
2018-08-13T10:24:00.437Z,5.63
2018-08-13T10:26:27.572Z,6.20
2018-08-13T10:28:54.703Z,6.13
2018-08-13T10:31:21.836Z,6.77
2018-08-13T10:33:48.948Z,5.97
2018-08-13T10:36:16.045Z,6.80
2018-08-13T10:38:43.136Z,5.27
2018-08-13T10:41:10.233Z,8.93
2018-08-13T10:43:37.380Z,6.20
2018-08-13T10:46:04.429Z,6.47
2018-08-13T10:48:31.687Z,7.87
2018-08-13T10:50:58.758Z,7.60
2018-08-13T10:53:25.860Z,6.23
2018-08-13T10:55:52.962Z,6.77
2018-08-13T10:58:20.060Z,6.80
2018-08-13T11:00:47.154Z,6.70
2018-08-13T11:03:14.336Z,8.20
2018-08-13T11:05:41.472Z,7.83
2018-08-13T11:08:08.564Z,6.97
2018-08-13T11:10:35.830Z,7.10
2018-08-13T11:13:02.972Z,7.43
2018-08-13T11:15:30.076Z,7.77
2018-08-13T11:17:57.174Z,7.07
2018-08-13T11:20:24.264Z,7.40
2018-08-13T11:22:51.372Z,6.73
2018-08-13T11:25:18.506Z,6.73
2018-08-13T11:27:45.621Z,7.20
2018-08-13T11:30:14.393Z,7.20
2018-08-13T11:32:41.685Z,7.77
2018-08-13T11:35:08.823Z,7.50
2018-08-13T11:37:35.928Z,8.43
2018-08-13T11:40:04.600Z,8.20
2018-08-13T11:42:31.717Z,8.50
2018-08-13T11:44:58.815Z,9.10
2018-08-13T11:47:25.925Z,9.77
2018-08-13T11:49:53.144Z,9.40
2018-08-13T11:52:20.298Z,9.87
2018-08-13T11:54:47.384Z,9.80
2018-08-13T11:57:14.481Z,9.17
2018-08-13T11:59:41.597Z,10.03
2018-08-13T12:02:08.832Z,9.57
2018-08-13T12:04:35.865Z,10.47
2018-08-13T12:07:02.982Z,9.60
2018-08-13T12:09:30.081Z,9.67
2018-08-13T12:11:57.203Z,11.77
2018-08-13T12:14:24.296Z,9.23
2018-08-13T12:16:51.397Z,9.93
2018-08-13T12:19:18.844Z,10.50
2018-08-13T12:21:46.796Z,9.00
2018-08-13T12:24:15.682Z,8.20
2018-08-13T12:26:42.781Z,9.00
2018-08-13T12:29:09.884Z,8.20
2018-08-13T12:31:36.985Z,8.70
2018-08-13T12:34:04.233Z,6.57
2018-08-13T12:36:31.320Z,6.13
2018-08-13T12:38:58.492Z,7.10
2018-08-13T12:41:25.609Z,5.47
2018-08-13T12:43:52.735Z,5.30
2018-08-13T12:46:19.927Z,6.10
2018-08-13T12:48:47.073Z,6.67
2018-08-13T12:51:14.212Z,5.90
2018-08-13T12:53:41.360Z,3.73
2018-08-13T12:56:08.465Z,3.37
2018-08-13T12:58:35.585Z,4.90
2018-08-13T13:01:07.060Z,3.07
2018-08-13T13:03:34.224Z,3.50
2018-08-13T13:06:01.361Z,3.80
2018-08-13T13:08:28.449Z,3.17
2018-08-13T13:10:55.572Z,3.60
2018-08-13T13:13:22.766Z,4.20
2018-08-13T13:15:49.880Z,4.30
2018-08-13T13:18:16.989Z,4.53
2018-08-13T13:20:44.089Z,5.13
2018-08-13T13:23:11.196Z,5.10
2018-08-13T13:25:38.375Z,4.00
2018-08-13T13:28:05.520Z,4.30
2018-08-13T13:30:32.628Z,4.70
2018-08-13T13:32:59.777Z,5.70
2018-08-13T13:35:26.887Z,5.70
2018-08-13T13:37:54.001Z,3.30
2018-08-13T13:40:21.140Z,4.17
2018-08-13T13:42:48.232Z,3.10
2018-08-13T13:45:15.881Z,2.70
2018-08-13T13:47:43.038Z,2.67
2018-08-13T13:50:11.257Z,2.87
2018-08-13T13:52:38.389Z,2.60
2018-08-13T13:55:05.634Z,3.60
2018-08-13T13:57:32.749Z,2.83
2018-08-13T14:00:00.655Z,3.23
2018-08-13T14:02:27.874Z,3.17
2018-08-13T14:04:57.011Z,2.80
2018-08-13T14:07:24.118Z,2.40
2018-08-13T14:09:51.528Z,2.60
2018-08-13T14:12:18.673Z,2.33
2018-08-13T14:14:45.799Z,2.37
2018-08-13T14:17:12.959Z,2.40
2018-08-13T14:19:40.057Z,2.13
2018-08-13T14:22:07.177Z,1.70
2018-08-13T14:24:34.289Z,1.70
2018-08-13T14:27:01.497Z,2.50
2018-08-13T14:29:28.686Z,1.63
2018-08-13T14:31:55.783Z,1.37
2018-08-13T14:34:23.011Z,1.70
2018-08-13T14:36:50.060Z,2.80
2018-08-13T14:39:17.541Z,1.40
2018-08-13T14:41:44.643Z,1.37
2018-08-13T14:44:11.844Z,2.20
2018-08-13T14:46:38.950Z,2.87
2018-08-13T14:49:06.149Z,1.70
2018-08-13T14:51:33.496Z,1.47
2018-08-13T14:54:01.000Z,1.87
2018-08-13T14:56:28.062Z,1.40
2018-08-13T14:58:55.133Z,1.70
2018-08-13T15:01:23.128Z,3.27
2018-08-13T15:03:50.224Z,1.57
2018-08-13T15:06:17.338Z,2.20
2018-08-13T15:08:44.432Z,1.90
2018-08-13T15:11:11.557Z,1.97
2018-08-13T15:13:38.660Z,1.90
2018-08-13T15:16:05.792Z,1.90
2018-08-13T15:18:32.944Z,2.10
2018-08-13T15:21:00.062Z,1.83
2018-08-13T15:23:27.172Z,1.83
2018-08-13T15:25:54.512Z,3.53
2018-08-13T15:28:21.701Z,2.30
2018-08-13T15:30:48.792Z,2.10
2018-08-13T15:33:16.172Z,2.00
2018-08-13T15:35:43.284Z,2.13
2018-08-13T15:38:10.393Z,2.30
2018-08-13T15:40:37.480Z,2.30
2018-08-13T15:43:04.741Z,1.40
2018-08-13T15:45:31.960Z,1.40
2018-08-13T15:47:59.157Z,1.40
2018-08-13T15:50:26.177Z,1.70
2018-08-13T15:52:53.468Z,3.70
2018-08-13T15:55:20.589Z,1.40
2018-08-13T15:57:47.998Z,1.43
2018-08-13T16:00:19.465Z,1.40
2018-08-13T16:02:47.037Z,1.10
2018-08-13T16:05:14.172Z,1.40
2018-08-13T16:07:41.313Z,1.00
2018-08-13T16:10:09.630Z,1.33
2018-08-13T16:12:36.769Z,1.10
2018-08-13T16:15:04.503Z,1.30
2018-08-13T16:17:31.632Z,1.37
2018-08-13T16:19:58.757Z,1.60
2018-08-13T16:22:25.880Z,1.50
2018-08-13T16:24:52.981Z,1.67
2018-08-13T16:27:20.069Z,2.07
2018-08-13T16:29:47.169Z,1.60
2018-08-13T16:32:14.309Z,1.63
2018-08-13T16:34:41.416Z,1.50
2018-08-13T16:37:08.565Z,1.60
2018-08-13T16:39:35.683Z,1.57
2018-08-13T16:42:02.808Z,1.50
2018-08-13T16:44:29.888Z,1.40
2018-08-13T16:46:57.085Z,1.27
2018-08-13T16:49:24.277Z,1.30
2018-08-13T16:51:51.413Z,2.07
2018-08-13T16:54:18.556Z,2.57
2018-08-13T16:56:45.686Z,2.27
2018-08-13T16:59:12.849Z,2.50
2018-08-13T17:01:39.972Z,2.47
2018-08-13T17:04:07.117Z,2.13
2018-08-13T17:06:34.254Z,2.00
2018-08-13T17:09:01.373Z,2.17
2018-08-13T17:11:32.921Z,2.30
2018-08-13T17:14:00.055Z,1.87
2018-08-13T17:16:28.274Z,2.30
2018-08-13T17:18:55.393Z,2.20
2018-08-13T17:21:22.541Z,1.90
2018-08-13T17:23:49.708Z,1.80
2018-08-13T17:26:16.860Z,1.70
2018-08-13T17:28:44.046Z,1.77
2018-08-13T17:31:11.152Z,2.17
2018-08-13T17:33:38.292Z,1.50
2018-08-13T17:36:05.472Z,1.70
2018-08-13T17:38:32.565Z,2.87
2018-08-13T17:40:59.690Z,1.43
2018-08-13T17:43:26.777Z,2.17
2018-08-13T17:45:53.934Z,1.80
2018-08-13T17:48:21.050Z,1.80
2018-08-13T17:50:48.746Z,2.20
2018-08-13T17:53:15.876Z,1.67
2018-08-13T17:55:43.006Z,1.80
2018-08-13T17:58:10.199Z,1.50
2018-08-13T18:00:37.372Z,1.63
2018-08-13T18:03:05.185Z,5.87
2018-08-13T18:05:32.421Z,1.93
2018-08-13T18:07:59.618Z,4.80
2018-08-13T18:10:27.979Z,7.17
2018-08-13T18:12:55.557Z,4.03
2018-08-13T18:15:22.669Z,4.03
2018-08-13T18:17:49.849Z,3.20
2018-08-13T18:20:17.295Z,1.90
2018-08-13T18:22:44.596Z,2.73
2018-08-13T18:25:12.709Z,2.13
2018-08-13T18:27:41.236Z,2.43
2018-08-13T18:30:09.437Z,5.30
2018-08-13T18:32:36.580Z,7.43
2018-08-13T18:35:04.206Z,1.77
2018-08-13T18:37:34.384Z,3.30
2018-08-13T18:40:01.693Z,2.17
2018-08-13T18:42:28.928Z,4.00
2018-08-13T18:44:56.044Z,3.53
2018-08-13T18:47:26.477Z,1.87
2018-08-13T18:49:53.640Z,2.53
2018-08-13T18:52:20.820Z,2.03
2018-08-13T18:54:47.964Z,1.93
2018-08-13T18:57:15.072Z,2.27
2018-08-13T18:59:42.176Z,1.57
2018-08-13T19:02:09.329Z,1.80
2018-08-13T19:04:36.459Z,1.93
2018-08-13T19:07:03.572Z,1.60
2018-08-13T19:09:30.745Z,2.20
2018-08-13T19:11:57.930Z,1.50
2018-08-13T19:14:24.988Z,1.70
2018-08-13T19:16:52.180Z,1.20
2018-08-13T19:19:19.453Z,1.93
2018-08-13T19:21:46.540Z,2.10
2018-08-13T19:24:13.681Z,1.80
2018-08-13T19:26:40.841Z,1.27
2018-08-13T19:29:07.968Z,2.90
2018-08-13T19:31:35.170Z,3.57
2018-08-13T19:34:02.276Z,4.07
2018-08-13T19:36:29.404Z,2.20
2018-08-13T19:38:56.500Z,2.10
2018-08-13T19:41:23.612Z,2.43
2018-08-13T19:43:50.704Z,2.27
2018-08-13T19:46:17.849Z,2.30
2018-08-13T19:48:44.957Z,1.70
2018-08-13T19:51:12.048Z,3.93
2018-08-13T19:53:39.156Z,3.17
2018-08-13T19:56:06.325Z,2.43
2018-08-13T19:58:33.416Z,1.83
2018-08-13T20:01:00.547Z,3.50
2018-08-13T20:03:27.671Z,2.00
2018-08-13T20:05:54.777Z,1.97
2018-08-13T20:08:21.898Z,4.03
2018-08-13T20:10:48.996Z,1.93
2018-08-13T20:13:16.297Z,5.33
2018-08-13T20:15:44.985Z,5.30
2018-08-13T20:18:12.370Z,1.60
2018-08-13T20:20:43.356Z,1.77
2018-08-13T20:23:15.626Z,3.33
2018-08-13T20:25:42.736Z,3.53
2018-08-13T20:28:09.895Z,4.80
2018-08-13T20:30:39.461Z,3.53
2018-08-13T20:33:07.076Z,1.60
2018-08-13T20:35:36.145Z,1.70
2018-08-13T20:38:03.646Z,1.83
2018-08-13T20:40:32.572Z,2.30
2018-08-13T20:43:06.153Z,2.03
2018-08-13T20:45:33.629Z,1.97
2018-08-13T20:48:00.752Z,2.00
2018-08-13T20:50:27.856Z,2.00
2018-08-13T20:52:55.217Z,1.63
2018-08-13T20:55:25.132Z,1.80
2018-08-13T20:57:52.296Z,2.03
2018-08-13T21:00:21.013Z,1.90
2018-08-13T21:02:48.257Z,1.63
2018-08-13T21:05:16.829Z,1.90
2018-08-13T21:07:44.480Z,2.93
2018-08-13T21:10:12.624Z,2.10
2018-08-13T21:12:39.757Z,1.97
2018-08-13T21:15:07.753Z,2.20
2018-08-13T21:17:34.869Z,2.67
2018-08-13T21:20:01.982Z,2.10
2018-08-13T21:22:29.085Z,1.60
2018-08-13T21:24:56.173Z,2.40
2018-08-13T21:27:23.269Z,1.83
2018-08-13T21:29:50.406Z,2.97
2018-08-13T21:32:17.612Z,1.87
2018-08-13T21:34:44.716Z,1.80
2018-08-13T21:37:11.813Z,3.17
2018-08-13T21:39:38.921Z,2.13
2018-08-13T21:42:06.109Z,2.20
2018-08-13T21:44:33.213Z,1.93
2018-08-13T21:47:00.328Z,1.70
2018-08-13T21:49:27.448Z,3.97
2018-08-13T21:51:54.611Z,1.73
2018-08-13T21:54:21.716Z,1.97
2018-08-13T21:56:48.809Z,1.80
2018-08-13T21:59:15.925Z,1.77
2018-08-13T22:01:44.980Z,3.10
2018-08-13T22:04:12.113Z,1.60
2018-08-13T22:06:39.332Z,2.00
2018-08-13T22:09:07.244Z,5.93
2018-08-13T22:11:34.340Z,2.57
2018-08-13T22:14:01.486Z,1.70
2018-08-13T22:16:28.557Z,1.80
2018-08-13T22:18:55.661Z,3.43
2018-08-13T22:21:22.757Z,1.70
2018-08-13T22:23:55.564Z,2.00
2018-08-13T22:26:22.657Z,2.83
2018-08-13T22:28:49.761Z,1.50
2018-08-13T22:31:16.857Z,1.70
2018-08-13T22:33:43.944Z,2.20
2018-08-13T22:36:11.201Z,1.67
2018-08-13T22:38:38.161Z,2.00
2018-08-13T22:41:05.509Z,1.70
2018-08-13T22:43:32.597Z,2.03
2018-08-13T22:45:59.768Z,1.60
2018-08-13T22:48:26.862Z,1.70
2018-08-13T22:50:53.949Z,1.83
2018-08-13T22:53:21.058Z,1.60
2018-08-13T22:55:48.178Z,2.50
2018-08-13T22:58:15.291Z,1.93
2018-08-13T23:00:42.376Z,1.60
2018-08-13T23:03:09.497Z,2.23
2018-08-13T23:05:36.647Z,1.70
2018-08-13T23:08:03.765Z,1.90
2018-08-13T23:10:30.880Z,1.77
2018-08-13T23:12:57.993Z,1.87
2018-08-13T23:15:25.110Z,1.60
2018-08-13T23:17:52.452Z,2.50
2018-08-13T23:20:20.268Z,2.10
2018-08-13T23:23:04.403Z,1.70
2018-08-13T23:25:32.504Z,1.60
2018-08-13T23:28:00.761Z,1.57
2018-08-13T23:30:28.032Z,1.90
2018-08-13T23:32:55.824Z,2.00
2018-08-13T23:35:23.695Z,2.03
2018-08-13T23:37:51.168Z,2.83
2018-08-13T23:40:18.272Z,2.13
2018-08-13T23:42:45.414Z,4.50
2018-08-13T23:45:15.068Z,1.73
2018-08-13T23:47:42.193Z,1.73
2018-08-13T23:50:10.293Z,1.53
2018-08-13T23:52:38.232Z,4.40
2018-08-13T23:55:05.781Z,3.03
2018-08-13T23:57:32.873Z,4.93
2018-08-13T23:59:59.977Z,1.87
